Time;durP1;ratioP1;P1;durP2;ratioP2;P2;SDS_P1;SDS_P2;PMS_P1;PMS_P2;Temp;Humidity;BMP_temperature;BMP_pressure;BME280_temperature;BME280_humidity;BME280_pressure;Samples;Min_cycle;Max_cycle;Signal;HPM_P1;HPM_P2
2022/08/05 00:01:56;;;;;;;10.40;8.23;;;26.40;1.00;;;26.26;43.13;100509.75;5046900;28;20478;-73
2022/08/05 00:04:39;;;;;;;7.80;7.10;;;26.20;1.00;;;26.19;43.28;100499.06;5050400;28;20443;-72
2022/08/05 00:07:10;;;;;;;8.23;7.43;;;26.00;1.00;;;26.14;43.46;100506.72;5053835;28;20442;-74
2022/08/05 00:10:00;;;;;;;9.40;8.50;;;26.00;1.00;;;26.03;43.97;100499.78;5057046;28;20438;-74
2022/08/05 00:12:29;;;;;;;10.17;8.13;;;25.80;1.00;;;26.02;44.07;100493.41;5046044;28;20545;-73
2022/08/05 00:14:58;;;;;;;9.40;8.50;;;25.80;1.00;;;26.05;44.23;100491.94;5051154;28;20455;-74
2022/08/05 00:17:48;;;;;;;9.30;8.43;;;25.80;1.00;;;25.98;44.33;100494.34;5050896;28;20463;-71
2022/08/05 00:20:18;;;;;;;9.13;8.33;;;25.70;1.00;;;26.05;44.33;100501.09;5050947;28;20435;-74
2022/08/05 00:22:49;;;;;;;10.37;9.47;;;25.70;1.00;;;25.92;44.63;100490.88;5050588;28;20461;-72
2022/08/05 00:25:30;;;;;;;12.60;9.80;;;25.70;1.00;;;25.84;44.96;100486.91;5051395;28;20450;-73
2022/08/05 00:28:14;;;;;;;13.30;9.17;;;25.60;1.00;;;25.82;44.99;100485.56;5049603;28;20452;-73
2022/08/05 00:30:48;;;;;;;10.00;8.30;;;25.60;1.00;;;25.73;44.95;100490.22;5025009;28;20425;-73
2022/08/05 00:33:19;;;;;;;8.03;7.33;;;25.50;1.00;;;25.62;45.34;100494.34;5050173;28;20456;-72
2022/08/05 00:36:09;;;;;;;8.63;7.93;;;25.40;1.00;;;25.58;45.64;100494.16;5047967;28;20442;-72
2022/08/05 00:38:59;;;;;;;9.67;8.67;;;25.40;1.00;;;25.57;45.89;100497.25;5052337;28;20471;-74
2022/08/05 00:41:30;;;;;;;10.30;9.27;;;25.30;1.00;;;25.39;46.34;100494.28;5052720;28;20870;-74
2022/08/05 00:44:20;;;;;;;9.50;8.60;;;25.30;1.00;;;25.22;46.79;100491.34;5049706;28;20458;-73
2022/08/05 00:46:51;;;;;;;9.80;9.07;;;25.10;1.00;;;25.12;47.07;100485.19;5054100;28;20890;-72
2022/08/05 00:49:30;;;;;;;10.27;9.43;;;25.00;1.00;;;25.04;47.05;100495.03;5058460;28;20681;-72
2022/08/05 00:52:01;;;;;;;14.73;10.30;;;24.90;1.00;;;24.98;47.25;100487.97;5050583;28;20811;-73
2022/08/05 00:54:32;;;;;;;9.80;9.00;;;24.80;1.00;;;24.85;47.80;100491.50;5046170;28;20455;-72
2022/08/05 00:57:01;;;;;;;9.80;8.90;;;24.70;1.00;;;24.77;48.26;100495.00;5053441;28;20528;-72
2022/08/05 00:59:30;;;;;;;9.13;8.40;;;24.70;1.00;;;24.99;48.39;100508.97;5046768;28;20618;-73
2022/08/05 01:02:12;;;;;;;8.30;7.50;;;24.70;1.00;;;25.13;48.12;100540.22;5027716;28;20811;-73
2022/08/05 01:04:44;;;;;;;11.13;9.97;;;24.80;1.00;;;24.98;49.34;100515.66;5045451;28;20470;-72
2022/08/05 01:07:18;;;;;;;9.97;8.97;;;24.80;1.30;;;24.91;49.78;100509.69;5047078;28;20459;-72
2022/08/05 01:09:49;;;;;;;9.73;8.03;;;24.70;1.90;;;24.80;50.24;100522.03;5040782;28;20421;-73
2022/08/05 01:12:26;;;;;;;11.40;10.00;;;24.60;2.50;;;24.74;50.53;100529.59;5050109;28;20417;-74
2022/08/05 01:15:06;;;;;;;10.63;9.63;;;24.50;3.00;;;24.60;50.90;100529.59;5043067;28;20443;-74
2022/08/05 01:18:03;;;;;;;9.63;8.63;;;24.50;3.50;;;24.43;51.14;100534.88;5045450;28;20562;-73
2022/08/05 01:20:51;;;;;;;10.50;9.60;;;24.20;4.00;;;24.36;51.28;100544.69;5041955;28;20541;-74
2022/08/05 01:23:40;;;;;;;8.90;8.00;;;24.20;4.30;;;24.18;51.78;100543.59;5043229;28;20494;-74
2022/08/05 01:26:40;;;;;;;8.80;7.97;;;24.00;5.00;;;24.09;52.03;100539.84;5046380;28;20422;-73
2022/08/05 01:29:19;;;;;;;9.03;8.23;;;23.90;5.60;;;24.03;52.45;100529.97;5050205;28;20461;-73
2022/08/05 01:31:59;;;;;;;9.50;8.60;;;23.80;6.40;;;24.02;52.66;100528.34;5027186;28;20457;-73
2022/08/05 01:34:34;;;;;;;9.33;8.43;;;23.80;6.80;;;24.06;52.87;100532.16;5045074;28;20454;-72
2022/08/05 01:37:12;;;;;;;9.40;8.50;;;23.80;7.50;;;23.88;53.58;100547.63;5046953;28;20496;-74
2022/08/05 01:39:55;;;;;;;8.93;8.13;;;23.70;8.40;;;23.90;53.85;100536.28;5042426;28;20866;-73
2022/08/05 01:42:31;;;;;;;12.37;8.60;;;23.60;9.60;;;23.78;54.35;100529.25;5044064;28;20980;-74
2022/08/05 01:45:03;;;;;;;8.77;7.70;;;23.60;10.40;;;23.77;54.54;100543.34;5047221;28;20770;-72
2022/08/05 01:47:38;;;;;;;8.13;7.20;;;23.50;11.30;;;23.82;54.87;100540.50;5046131;28;20417;-73
2022/08/05 01:50:17;;;;;;;8.63;7.63;;;23.50;12.50;;;23.70;55.39;100532.69;5044221;28;20572;-74
2022/08/05 01:53:02;;;;;;;9.27;8.30;;;23.50;13.50;;;23.75;55.64;100540.91;5037239;28;20864;-72
2022/08/05 01:55:35;;;;;;;8.50;6.57;;;23.50;14.50;;;23.69;55.92;100536.56;5041895;28;20822;-73
2022/08/05 01:58:07;;;;;;;7.97;6.40;;;23.40;15.60;;;23.72;56.00;100529.63;5047353;28;20784;-73
2022/08/05 02:01:01;;;;;;;7.60;6.90;;;23.40;16.70;;;23.73;56.19;100520.19;5050667;28;20474;-71
2022/08/05 02:03:36;;;;;;;7.97;7.27;;;23.50;17.50;;;23.56;56.79;100542.81;5041955;28;20492;-73
2022/08/05 02:06:09;;;;;;;7.60;6.90;;;23.30;18.80;;;23.49;57.49;100536.84;5047300;28;20835;-73
2022/08/05 02:08:59;;;;;;;6.63;6.13;;;23.20;20.20;;;23.42;57.54;100519.78;5049264;28;20417;-74
2022/08/05 02:11:39;;;;;;;6.87;6.37;;;23.20;21.70;;;23.52;57.33;100510.56;5051614;28;20929;-73
2022/08/05 02:14:24;;;;;;;7.80;7.07;;;23.20;22.90;;;23.43;57.81;100521.41;5048761;28;20459;-73
2022/08/05 02:17:00;;;;;;;7.80;7.10;;;23.20;24.00;;;23.40;57.60;100524.78;5047798;28;20439;-74
2022/08/05 02:19:35;;;;;;;6.60;6.00;;;23.10;24.90;;;23.33;58.15;100532.63;5047880;28;20439;-75
2022/08/05 02:22:21;;;;;;;7.00;6.50;;;23.10;26.50;;;23.21;58.52;100518.41;5043979;28;20482;-72
2022/08/05 02:25:03;;;;;;;7.57;6.77;;;23.00;27.90;;;23.19;58.83;100520.66;5037590;28;20410;-73
2022/08/05 02:27:38;;;;;;;7.13;6.37;;;22.90;29.70;;;23.05;59.09;100519.69;5045367;28;20504;-73
2022/08/05 02:30:37;;;;;;;6.77;5.97;;;22.80;32.20;;;23.00;59.43;100528.03;5046372;28;20453;-73
2022/08/05 02:33:25;;;;;;;6.93;6.17;;;22.80;35.90;;;23.10;59.29;100531.50;5045776;28;20429;-72
2022/08/05 02:36:11;;;;;;;7.60;6.40;;;22.80;38.10;;;22.99;59.80;100531.91;5053402;28;20431;-73
2022/08/05 02:38:49;;;;;;;7.57;6.20;;;22.70;40.90;;;23.06;59.71;100532.38;5030514;28;20432;-73
2022/08/05 02:41:25;;;;;;;8.17;6.13;;;22.70;43.10;;;22.91;60.05;100536.13;5055848;28;20419;-73
2022/08/05 02:44:08;;;;;;;6.83;6.23;;;22.70;44.90;;;22.84;60.34;100544.75;5043760;28;20430;-72
2022/08/05 02:46:43;;;;;;;6.30;5.80;;;22.60;47.90;;;22.79;60.74;100539.31;5047573;28;20425;-73
2022/08/05 02:49:34;;;;;;;8.13;6.50;;;22.50;51.50;;;22.87;60.81;100530.38;5050967;28;20441;-73
2022/08/05 02:52:11;;;;;;;5.70;5.20;;;22.60;54.00;;;22.80;61.03;100529.88;5055936;28;20911;-73
2022/08/05 02:55:00;;;;;;;6.00;5.37;;;22.50;56.60;;;22.75;61.28;100535.44;5046422;28;20448;-72
2022/08/05 02:57:35;;;;;;;7.60;6.50;;;22.50;58.90;;;22.79;61.05;100531.03;5053808;28;20508;-74
2022/08/05 03:00:24;;;;;;;6.87;6.27;;;22.50;60.60;;;22.76;61.38;100528.00;5049491;28;20458;-74
2022/08/05 03:02:58;;;;;;;6.53;5.70;;;22.50;61.60;;;22.70;61.62;100535.53;5050626;28;20435;-73
2022/08/05 03:05:29;;;;;;;10.53;6.23;;;22.50;64.00;;;22.76;61.23;100537.09;5027203;28;20430;-71
2022/08/05 03:08:19;;;;;;;6.13;5.60;;;22.50;64.80;;;22.72;61.58;100533.28;5048170;28;20414;-74
2022/08/05 03:10:58;;;;;;;7.83;5.60;;;22.40;68.40;;;22.65;61.85;100524.53;5048289;28;20405;-74
2022/08/05 03:13:47;;;;;;;6.53;5.93;;;22.40;69.90;;;22.64;61.92;100517.34;5050000;28;20438;-72
2022/08/05 03:16:31;;;;;;;5.90;5.33;;;22.40;72.90;;;22.69;62.02;100511.78;5052702;28;20438;-73
2022/08/05 03:19:01;;;;;;;6.20;5.60;;;22.40;74.40;;;22.59;62.18;100509.13;5050206;28;20950;-71
2022/08/05 03:21:45;;;;;;;7.13;5.93;;;22.40;76.40;;;22.52;62.53;100506.69;5050102;28;20466;-72
2022/08/05 03:24:19;;;;;;;7.60;6.40;;;22.30;78.20;;;22.79;61.49;100500.69;5044775;28;20459;-74
2022/08/05 03:27:00;;;;;;;6.50;5.90;;;22.50;74.70;;;22.79;61.67;100508.13;5044787;28;20466;-73
2022/08/05 03:29:29;;;;;;;8.40;6.43;;;22.50;75.70;;;22.77;61.64;100502.06;5048427;28;20934;-73
2022/08/05 03:32:20;;;;;;;8.73;6.53;;;22.50;75.70;;;22.84;61.54;100497.88;5051575;28;20412;-74
2022/08/05 03:34:59;;;;;;;6.47;5.77;;;22.50;74.20;;;22.87;61.27;100497.28;5048691;28;20876;-73
2022/08/05 03:37:31;;;;;;;5.93;5.43;;;22.50;72.70;;;22.84;61.43;100495.09;5049746;28;20443;-74
2022/08/05 03:40:15;;;;;;;6.80;6.27;;;22.60;72.60;;;22.96;61.21;100494.69;5052252;28;20438;-72
2022/08/05 03:42:59;;;;;;;6.83;6.13;;;22.60;71.80;;;22.93;61.20;100507.13;5051194;28;20806;-73
2022/08/05 03:45:43;;;;;;;5.83;5.33;;;22.60;69.80;;;22.88;61.24;100504.44;5048223;28;20446;-74
2022/08/05 03:48:27;;;;;;;6.97;6.40;;;22.50;70.90;;;23.01;60.77;100504.84;5049536;28;20410;-74
2022/08/05 03:51:08;;;;;;;8.27;6.93;;;22.60;70.20;;;23.06;60.45;100513.06;5041329;28;20417;-73
2022/08/05 03:54:10;;;;;;;7.67;7.07;;;22.70;67.60;;;23.06;60.75;100513.06;5050492;28;20479;-72
2022/08/05 03:57:02;;;;;;;7.40;6.80;;;22.70;67.10;;;23.11;60.52;100519.34;5050270;28;20463;-74
2022/08/05 03:59:53;;;;;;;7.07;6.33;;;22.70;66.40;;;23.20;60.33;100517.56;5049613;28;20433;-73
2022/08/05 04:02:28;;;;;;;6.70;6.10;;;22.80;65.80;;;23.18;60.40;100524.50;5048835;28;20423;-73
2022/08/05 04:05:14;;;;;;;9.50;7.40;;;22.80;64.60;;;23.41;59.74;100523.66;5045792;28;20420;-72
2022/08/05 04:07:44;;;;;;;6.70;6.20;;;22.90;62.60;;;23.75;58.75;100524.31;5045064;28;20452;-73
2022/08/05 04:10:28;;;;;;;8.47;6.00;;;23.10;59.20;;;23.85;58.59;100523.34;5047827;28;20418;-72
2022/08/05 04:13:07;;;;;;;6.53;5.87;;;23.20;56.80;;;24.04;57.72;100510.34;5047621;28;20485;-74
2022/08/05 04:15:36;;;;;;;8.23;7.53;;;23.40;53.80;;;24.03;57.75;100516.16;5045877;28;20770;-73
2022/08/05 04:18:24;;;;;;;6.93;6.23;;;23.40;52.40;;;24.03;57.73;100518.94;5049143;28;20466;-73
2022/08/05 04:20:54;;;;;;;6.73;6.10;;;23.50;50.80;;;24.20;57.29;100522.00;5048368;28;20450;-74
2022/08/05 04:23:27;;;;;;;6.37;5.67;;;23.60;49.60;;;24.55;56.45;100526.91;5048073;28;20441;-74
2022/08/05 04:26:17;;;;;;;7.03;6.33;;;23.70;48.40;;;24.83;55.97;100529.75;5028993;28;20920;-73
2022/08/05 04:28:46;;;;;;;6.73;6.13;;;24.00;45.90;;;25.26;54.59;100531.13;5049935;28;20439;-73
2022/08/05 04:31:20;;;;;;;5.63;5.00;;;24.30;43.00;;;24.89;55.37;100532.13;5051943;28;20445;-72
2022/08/05 04:33:49;;;;;;;5.43;4.93;;;24.30;41.20;;;24.70;55.93;100534.13;5057035;28;20464;-73
2022/08/05 04:36:38;;;;;;;6.57;5.90;;;24.20;41.00;;;24.56;56.36;100539.63;5051471;28;20444;-73
2022/08/05 04:39:18;;;;;;;8.17;7.30;;;24.10;41.40;;;24.46;56.88;100539.81;5062123;28;20538;-71
2022/08/05 04:41:49;;;;;;;8.20;6.30;;;24.00;42.20;;;24.67;56.24;100535.56;5061494;28;20453;-73
2022/08/05 04:44:19;;;;;;;7.00;6.40;;;24.00;42.80;;;25.60;53.77;100546.50;5058166;22;20492;-71
2022/08/05 04:46:58;;;;;;;8.00;7.00;;;24.40;40.70;;;26.06;52.80;100535.19;5051957;28;20445;-70
2022/08/05 04:49:27;;;;;;;8.37;7.50;;;24.80;36.90;;;26.50;51.49;100529.66;5051222;28;20453;-72
2022/08/05 04:52:16;;;;;;;8.43;5.73;;;25.10;34.00;;;26.54;51.65;100532.63;5030186;28;20435;-70
2022/08/05 04:54:46;;;;;;;8.80;6.93;;;25.40;31.90;;;26.80;50.97;100522.50;5058194;28;20435;-71
2022/08/05 04:57:18;;;;;;;10.43;6.47;;;25.60;30.00;;;27.10;49.79;100527.22;5030708;28;20456;-71
2022/08/05 04:59:48;;;;;;;5.23;4.83;;;25.90;28.00;;;27.38;49.36;100524.19;5053511;28;20436;-71
2022/08/05 05:02:17;;;;;;;8.77;7.97;;;26.10;26.90;;;27.55;49.19;100524.25;5058613;28;20420;-71
2022/08/05 05:05:07;;;;;;;6.60;6.00;;;26.30;25.70;;;27.69;48.67;100524.97;5027665;28;20422;-71
2022/08/05 05:07:59;;;;;;;7.10;6.40;;;26.40;24.50;;;27.08;50.24;100535.06;5043710;28;20442;-72
2022/08/05 05:10:31;;;;;;;7.27;5.83;;;26.30;24.50;;;26.65;51.17;100539.53;5042621;28;20416;-70
2022/08/05 05:13:02;;;;;;;7.20;6.50;;;26.00;25.40;;;26.49;51.30;100541.88;5033656;28;20467;-71
2022/08/05 05:15:33;;;;;;;7.40;5.57;;;25.70;25.60;;;25.91;53.14;100542.72;5041391;28;20443;-70
2022/08/05 05:18:22;;;;;;;6.10;5.60;;;25.60;27.50;;;25.52;54.38;100550.78;5041324;28;20536;-71
2022/08/05 05:21:03;;;;;;;6.20;5.70;;;25.30;28.30;;;25.32;54.95;100563.09;5042311;28;20441;-71
2022/08/05 05:23:33;;;;;;;6.37;5.87;;;25.10;29.60;;;25.30;55.26;100562.59;5043633;28;20461;-72
2022/08/05 05:26:22;;;;;;;6.23;5.73;;;24.90;31.00;;;25.45;54.95;100570.63;5048226;28;20421;-71
2022/08/05 05:29:02;;;;;;;6.93;6.33;;;25.00;31.70;;;25.32;55.40;100576.94;5045692;28;20427;-71
2022/08/05 05:31:43;;;;;;;7.83;6.20;;;24.90;32.40;;;25.02;56.47;100602.50;5048072;28;20483;-71
2022/08/05 05:34:14;;;;;;;6.13;5.63;;;24.80;33.20;;;24.88;57.13;100610.78;5039718;28;20455;-71
2022/08/05 05:36:51;;;;;;;6.10;5.50;;;24.70;35.00;;;24.97;56.92;100617.25;5038839;28;20554;-71
2022/08/05 05:39:20;;;;;;;10.50;6.10;;;24.60;36.30;;;25.01;57.01;100629.34;5043465;28;20420;-71
2022/08/05 05:41:51;;;;;;;8.33;6.67;;;24.60;37.20;;;25.24;56.21;100622.00;5040467;28;20443;-71
2022/08/05 05:44:23;;;;;;;7.00;6.30;;;24.80;37.10;;;25.28;55.85;100614.69;5047354;28;20476;-71
2022/08/05 05:47:05;;;;;;;6.53;5.80;;;24.80;35.70;;;25.25;55.89;100609.78;5044266;28;20439;-70
2022/08/05 05:49:55;;;;;;;6.87;6.27;;;24.90;35.10;;;25.19;56.22;100613.78;5047177;28;20847;-71
2022/08/05 05:52:31;;;;;;;6.40;5.77;;;24.80;35.30;;;25.27;56.08;100618.59;5046260;28;20832;-72
2022/08/05 05:55:10;;;;;;;8.10;5.90;;;24.90;35.50;;;25.25;56.18;100623.63;5050299;28;20758;-71
2022/08/05 05:57:44;;;;;;;7.20;6.60;;;24.90;35.50;;;25.13;56.65;100636.31;5044799;28;20417;-71
2022/08/05 06:00:23;;;;;;;6.80;6.07;;;24.80;36.30;;;25.26;56.42;100658.50;5045863;28;20410;-71
2022/08/05 06:03:02;;;;;;;7.33;6.63;;;24.90;36.70;;;25.15;56.83;100684.75;5047750;28;20477;-71
2022/08/05 06:05:52;;;;;;;7.63;6.93;;;24.90;37.30;;;24.98;57.38;100678.97;5043928;28;20448;-70
2022/08/05 06:08:24;;;;;;;6.37;5.77;;;24.70;38.50;;;25.03;57.25;100682.44;5032727;28;20484;-70
2022/08/05 06:11:01;;;;;;;6.37;5.77;;;24.70;38.80;;;25.03;56.85;100670.53;5050468;28;20469;-70
2022/08/05 06:13:31;;;;;;;6.23;5.57;;;24.70;38.10;;;24.81;57.72;100678.66;5054065;28;20459;-71
2022/08/05 06:16:22;;;;;;;5.13;4.63;;;24.50;39.50;;;24.67;58.46;100673.91;5034016;28;20590;-71
2022/08/05 06:19:01;;;;;;;6.87;6.10;;;24.40;42.10;;;24.83;58.38;100677.25;5045606;28;20439;-71
2022/08/05 06:21:37;;;;;;;5.53;5.03;;;24.50;43.80;;;24.88;58.44;100704.03;5051776;28;20436;-71
2022/08/05 06:24:18;;;;;;;5.70;5.20;;;24.50;44.60;;;24.63;59.30;100716.31;5050691;28;20516;-70
2022/08/05 06:26:53;;;;;;;5.30;4.80;;;24.30;46.40;;;24.66;59.26;100713.75;5048778;28;20429;-70
2022/08/05 06:29:24;;;;;;;5.90;5.40;;;24.30;48.00;;;24.77;59.18;100708.88;5051586;28;20454;-70
2022/08/05 06:32:15;;;;;;;7.13;4.70;;;24.40;49.40;;;24.71;59.56;100701.78;5047117;28;20442;-71
2022/08/05 06:34:58;;;;;;;4.13;3.80;;;24.40;50.50;;;24.81;59.55;100695.25;5047912;28;20428;-70
2022/08/05 06:37:34;;;;;;;4.40;4.10;;;24.40;52.00;;;24.81;59.63;100690.56;5046230;28;20442;-71
2022/08/05 06:40:24;;;;;;;5.40;4.90;;;24.40;52.40;;;25.19;58.81;100684.94;5044693;28;20416;-70
2022/08/05 06:43:00;;;;;;;7.10;6.00;;;24.70;52.10;;;25.22;58.39;100676.88;5046859;28;20461;-71
2022/08/05 06:45:29;;;;;;;6.17;4.90;;;24.80;49.80;;;25.14;59.14;100693.34;5048835;28;20435;-71
2022/08/05 06:48:19;;;;;;;8.57;4.63;;;24.80;50.90;;;24.86;60.54;100682.16;5055431;28;20436;-71
2022/08/05 06:51:08;;;;;;;5.10;4.37;;;24.60;54.20;;;25.03;59.74;100687.16;5053816;28;20430;-70
2022/08/05 06:53:51;;;;;;;5.63;5.10;;;24.70;54.50;;;24.99;59.98;100691.66;5054614;28;20753;-71
2022/08/05 06:56:21;;;;;;;5.90;5.33;;;24.70;55.20;;;25.09;59.89;100686.78;5049379;28;20797;-71
2022/08/05 06:58:55;;;;;;;5.27;4.77;;;24.70;56.10;;;25.27;58.92;100676.75;5049240;28;20436;-71
2022/08/05 07:01:25;;;;;;;4.67;4.10;;;24.80;53.20;;;25.19;58.84;100671.09;5046110;28;20457;-71
2022/08/05 07:04:02;;;;;;;4.50;4.10;;;24.80;51.50;;;25.61;57.74;100675.63;5048421;28;20458;-70
2022/08/05 07:06:31;;;;;;;4.60;4.17;;;25.10;49.30;;;25.86;56.40;100675.06;5049417;28;20925;-71
2022/08/05 07:09:02;;;;;;;5.70;4.10;;;25.30;45.40;;;25.81;56.59;100669.63;5045947;28;20446;-70
2022/08/05 07:11:33;;;;;;;4.03;3.70;;;25.40;43.80;;;26.23;55.64;100683.19;5045724;28;20803;-70
2022/08/05 07:17:02;;;;;;;5.07;4.67;;;25.70;39.10;;;26.26;55.80;100682.53;5051055;28;20924;-71
2022/08/05 07:19:55;;;;;;;5.20;4.70;;;25.80;39.30;;;25.94;55.78;100691.00;5049862;28;20925;-70
2022/08/05 07:22:44;;;;;;;8.63;4.27;;;25.70;37.80;;;26.03;56.11;100716.03;5042110;28;20450;-71
2022/08/05 07:25:15;;;;;;;5.23;3.70;;;25.70;39.60;;;25.87;56.88;100727.44;5049335;28;20850;-71
2022/08/05 07:28:05;;;;;;;4.53;3.93;;;25.60;40.40;;;25.94;56.73;100740.91;5052363;28;20438;-70
2022/08/05 07:30:39;;;;;;;4.90;4.43;;;25.60;40.90;;;25.97;57.19;100737.50;5053469;28;20860;-69
2022/08/05 07:33:15;;;;;;;4.97;4.47;;;25.60;41.80;;;25.82;57.46;100748.91;5047403;28;20779;-71
2022/08/05 07:35:47;;;;;;;4.73;4.33;;;25.40;43.20;;;25.85;57.60;100742.75;5055793;28;20541;-70
2022/08/05 07:38:38;;;;;;;6.23;4.07;;;25.40;44.20;;;25.74;57.91;100741.31;5051404;28;20539;-71
2022/08/05 07:41:16;;;;;;;5.00;3.77;;;25.40;44.50;;;25.51;58.16;100738.34;5054959;28;20435;-71
2022/08/05 07:44:08;;;;;;;4.50;4.10;;;25.30;44.90;;;25.91;57.60;100724.88;5031055;28;20467;-71
2022/08/05 07:46:48;;;;;;;5.30;4.80;;;25.40;46.20;;;25.76;57.94;100722.41;5049252;28;20406;-70
2022/08/05 07:49:19;;;;;;;6.70;4.80;;;25.40;45.70;;;25.43;58.99;100722.44;5053537;28;20535;-69
2022/08/05 07:51:50;;;;;;;5.20;4.70;;;25.20;46.90;;;25.22;59.53;100726.72;5044864;28;20501;-71
2022/08/05 07:54:25;;;;;;;4.67;4.27;;;25.00;49.70;;;24.87;60.12;100732.84;5050977;28;20563;-71
2022/08/05 07:57:00;;;;;;;5.20;4.50;;;24.70;51.00;;;24.76;60.88;100736.84;5052785;28;20430;-71
2022/08/05 07:59:49;;;;;;;4.97;4.30;;;24.50;55.10;;;24.67;60.97;100729.25;5040895;28;20417;-71
2022/08/05 08:02:23;;;;;;;7.00;5.50;;;24.40;57.60;;;24.60;61.42;100720.47;5051254;28;20755;-71
2022/08/05 08:04:58;;;;;;;4.70;4.07;;;24.30;61.00;;;24.75;61.05;100724.97;5066822;28;20446;-70
2022/08/05 08:07:29;;;;;;;5.27;4.87;;;24.30;64.40;;;24.78;61.01;100712.47;5048711;28;20508;-70
2022/08/05 08:10:18;;;;;;;6.10;4.20;;;24.40;63.80;;;24.59;61.50;100718.81;5052498;28;20443;-71
2022/08/05 08:12:49;;;;;;;4.20;3.80;;;24.30;64.80;;;24.47;61.41;100725.94;5055265;28;20471;-70
2022/08/05 08:15:18;;;;;;;4.60;4.20;;;24.20;63.80;;;24.39;61.71;100732.97;5054471;28;20429;-70
2022/08/05 08:18:08;;;;;;;4.33;3.90;;;24.10;66.60;;;24.46;61.62;100713.22;5051506;28;20440;-71
2022/08/05 08:20:42;;;;;;;4.67;4.20;;;24.10;70.00;;;24.55;61.73;100715.03;5053113;28;20427;-70
2022/08/05 08:23:34;;;;;;;4.53;4.13;;;24.10;72.40;;;24.46;62.03;100705.75;5052566;28;20484;-71
2022/08/05 08:26:23;;;;;;;4.97;3.53;;;24.10;72.60;;;24.49;61.80;100685.00;5054817;28;20458;-70
2022/08/05 08:28:59;;;;;;;7.50;4.70;;;24.20;69.20;;;24.62;61.59;100692.53;5046087;28;20468;-71
2022/08/05 08:31:49;;;;;;;7.57;4.87;;;24.20;1.00;;;24.71;60.23;100701.78;5046662;28;20440;-71
2022/08/05 08:34:19;;;;;;;4.20;3.80;;;24.30;1.00;;;24.76;60.19;100704.47;5047678;28;20501;-71
2022/08/05 08:37:01;;;;;;;4.03;3.63;;;24.30;1.00;;;24.91;59.88;100700.66;5045682;28;20489;-71
2022/08/05 08:39:35;;;;;;;4.33;3.70;;;24.50;1.00;;;25.07;59.54;100716.72;5048611;28;20477;-70
2022/08/05 08:42:08;;;;;;;3.50;3.20;;;24.60;1.00;;;25.28;59.05;100739.34;5040090;28;20508;-70
2022/08/05 08:44:59;;;;;;;4.33;3.90;;;24.80;1.00;;;25.45;58.53;100756.22;5049429;28;20914;-70
2022/08/05 08:47:52;;;;;;;4.93;3.83;;;24.90;1.00;;;25.23;58.60;100758.81;5041473;28;20449;-70
2022/08/05 08:50:43;;;;;;;5.07;3.77;;;24.90;1.00;;;24.93;59.84;100756.56;5049361;28;20513;-70
2022/08/05 08:53:37;;;;;;;4.07;3.50;;;24.70;1.00;;;24.84;60.41;100758.31;5044784;28;20427;-70
2022/08/05 08:56:14;;;;;;;3.53;3.23;;;24.50;1.00;;;24.77;60.00;100760.63;5046807;28;20435;-70
2022/08/05 08:58:46;;;;;;;5.17;4.03;;;24.50;1.00;;;24.67;60.51;100773.50;5048303;28;20903;-70
2022/08/05 09:01:18;;;;;;;4.20;3.50;;;24.40;1.00;;;24.56;61.12;100777.53;5029494;28;20904;-70
2022/08/05 09:03:50;;;;;;;5.40;3.60;;;24.30;1.00;;;24.34;62.07;100771.75;5047725;28;20624;-70
2022/08/05 09:06:23;;;;;;;3.33;2.80;;;24.10;1.00;;;24.29;62.10;100782.06;5045672;28;20956;-72
2022/08/05 09:09:00;;;;;;;4.97;3.60;;;24.10;1.00;;;24.05;63.58;100793.94;5043954;28;20449;-71
2022/08/05 09:11:35;;;;;;;4.93;3.73;;;23.90;1.00;;;24.13;64.12;100795.22;5043272;28;20979;-70
2022/08/05 09:14:22;;;;;;;4.17;3.53;;;23.90;1.00;;;24.29;63.68;100799.47;5053327;28;20434;-70
2022/08/05 09:17:13;;;;;;;6.63;3.90;;;24.00;1.00;;;24.41;62.99;100802.63;5028351;28;20606;-70
2022/08/05 09:20:04;;;;;;;5.90;4.10;;;24.00;1.00;;;24.84;61.95;100806.19;5048127;28;20443;-70
2022/08/05 09:23:10;;;;;;;5.30;3.90;;;24.30;1.00;;;24.99;61.21;100799.63;5036338;28;20900;-70
2022/08/05 09:25:50;;;;;;;7.50;3.97;;;24.50;1.00;;;25.23;60.98;100791.22;5051975;28;20450;-69
2022/08/05 09:28:35;;;;;;;7.17;3.97;;;24.70;1.00;;;25.11;61.06;100800.00;5045814;28;20452;-71
2022/08/05 09:31:07;;;;;;;4.97;4.10;;;24.80;1.00;;;25.19;61.17;100798.47;5046139;28;20899;-72
2022/08/05 09:34:00;;;;;;;3.80;3.50;;;24.80;1.00;;;25.35;59.69;100788.81;5048892;28;20474;-71
2022/08/05 09:36:45;;;;;;;3.30;2.97;;;24.90;1.00;;;25.41;59.95;100798.69;5050103;28;20913;-71
2022/08/05 09:39:28;;;;;;;4.20;3.70;;;25.00;1.00;;;25.55;59.33;100782.94;5046427;28;20465;-71
2022/08/05 09:42:20;;;;;;;4.20;3.80;;;25.10;1.00;;;25.43;59.52;100790.88;5049930;28;20585;-71
2022/08/05 09:45:07;;;;;;;4.00;3.67;;;25.10;1.00;;;25.34;59.60;100798.22;5047710;28;20420;-71
2022/08/05 09:47:56;;;;;;;3.90;3.50;;;25.00;1.00;;;25.30;59.72;100795.25;5052382;28;20459;-72
2022/08/05 09:50:36;;;;;;;8.23;3.63;;;24.90;1.00;;;25.46;59.32;100793.06;5051077;28;20522;-72
2022/08/05 09:53:12;;;;;;;4.10;3.70;;;25.00;1.00;;;25.39;59.20;100779.59;5045188;28;20473;-71
2022/08/05 09:55:57;;;;;;;3.87;3.57;;;25.00;1.00;;;25.24;59.76;100766.00;5043643;28;20465;-71
2022/08/05 09:58:41;;;;;;;5.27;3.80;;;24.90;1.00;;;24.96;60.08;100747.63;5054651;28;20434;-72
2022/08/05 10:01:17;;;;;;;4.00;2.97;;;24.70;1.00;;;24.58;61.36;100758.69;5050800;28;20438;-71
2022/08/05 10:04:03;;;;;;;5.07;3.47;;;24.50;1.00;;;24.33;63.50;100734.16;5046386;28;20845;-71
2022/08/05 10:06:40;;;;;;;5.03;4.53;;;24.20;1.00;;;24.11;65.00;100711.72;5048664;28;20485;-70
2022/08/05 10:09:27;;;;;;;5.73;4.60;;;24.00;1.00;;;23.80;67.76;100681.75;5050791;28;20420;-70
2022/08/05 10:12:09;;;;;;;7.03;4.97;;;23.70;1.00;;;23.92;68.12;100713.63;5048940;28;20441;-69
2022/08/05 10:15:15;;;;;;;6.80;5.00;;;23.60;17.50;;;23.75;68.04;100726.00;5039871;28;20862;-70
2022/08/05 10:18:13;;;;;;;32.43;28.30;;;23.50;1.00;;;23.74;70.58;100713.31;5045157;28;20425;-69
2022/08/05 10:20:47;;;;;;;4.90;4.40;;;23.50;21.60;;;24.33;69.01;100750.75;5047013;28;20444;-69
2022/08/05 10:23:20;;;;;;;4.70;4.20;;;23.70;29.90;;;24.62;66.36;100775.53;5052403;28;20478;-70
2022/08/05 10:26:11;;;;;;;6.10;5.50;;;24.10;1.00;;;24.81;67.01;100768.03;5050986;28;20461;-70
2022/08/05 10:28:43;;;;;;;5.13;4.33;;;24.20;7.40;;;24.78;66.24;100742.91;5049149;28;20459;-70
2022/08/05 10:31:17;;;;;;;9.33;4.23;;;24.30;1.00;;;24.84;66.10;100772.97;5044822;28;20515;-70
2022/08/05 10:34:09;;;;;;;4.57;4.17;;;24.40;1.00;;;24.87;66.04;100791.78;5050401;28;21008;-70
2022/08/05 10:36:41;;;;;;;4.97;4.47;;;24.50;1.00;;;24.97;65.04;100799.13;5052471;28;20439;-70
2022/08/05 10:39:18;;;;;;;7.43;4.17;;;24.60;1.00;;;25.34;64.27;100807.38;5048066;28;20451;-70
2022/08/05 10:42:16;;;;;;;4.80;4.33;;;24.70;1.00;;;25.55;63.70;100809.81;5040495;28;20443;-70
2022/08/05 10:45:03;;;;;;;4.43;4.03;;;24.90;1.00;;;25.58;64.35;100809.22;4992612;28;20489;-71
2022/08/05 10:47:52;;;;;;;5.43;4.23;;;25.00;1.00;;;25.64;64.25;100802.47;4993593;28;20942;-72
2022/08/05 10:51:03;;;;;;;6.07;4.13;;;25.00;25.30;;;25.78;64.64;100793.03;4994628;28;20442;-72
2022/08/05 10:53:44;;;;;;;6.00;4.37;;;25.10;74.20;;;25.79;64.55;100785.56;4996155;28;20509;-71
2022/08/05 10:56:16;;;;;;;5.40;4.90;;;25.20;99.90;;;25.71;62.37;100786.25;5020784;22;21202;-74
2022/08/05 10:59:06;;;;;;;4.50;4.10;;;25.10;1.00;;;25.66;62.39;100783.59;5054843;28;20446;-72
2022/08/05 11:02:12;;;;;;;6.30;4.77;;;25.20;1.00;;;26.04;62.38;100778.69;5072810;28;20430;-73
2022/08/05 11:05:06;;;;;;;5.90;4.73;;;25.30;1.00;;;25.90;61.64;100773.94;5073759;28;20458;-73
2022/08/05 11:07:58;;;;;;;4.70;3.90;;;25.40;1.00;;;25.63;61.93;100775.88;5075421;28;20529;-72
2022/08/05 11:10:36;;;;;;;4.23;3.83;;;25.20;1.00;;;25.59;61.34;100766.53;5052216;28;20448;-73
2022/08/05 11:13:44;;;;;;;3.97;3.57;;;25.10;1.00;;;25.65;58.32;100773.63;5066944;28;20452;-73